Terminal Aerodrome Forecast
Issued by NWS

Home | Current Version | Previous Version | Text Only | Print | Product List | Glossary On
Versions: 1 2 3 4 5 6 7 8 9 10 11 12
000
FTUS45 KGGW 211732
TAFSDY
TAF
KSDY 211732Z 2118/2218 34014KT P6SM FEW110
     FM220100 35009KT P6SM FEW160
     FM220300 VRB05KT P6SM FEW190=

USA.gov is the U.S. government's official web portal to all federal, state and local government web resources and services.